createdAt,value
2023-04-25T00:00:26.533Z,105.30
2023-04-25T00:02:57.030Z,106.37
2023-04-25T00:05:25.444Z,104.53
2023-04-25T00:07:53.751Z,104.27
2023-04-25T00:10:22.217Z,106.43
2023-04-25T00:12:50.372Z,106.07
2023-04-25T00:15:18.812Z,104.00
2023-04-25T00:17:47.665Z,105.87
2023-04-25T00:20:17.318Z,103.37
2023-04-25T00:22:45.434Z,105.90
2023-04-25T00:25:13.400Z,107.73
2023-04-25T00:27:42.745Z,106.33
2023-04-25T00:30:11.720Z,108.27
2023-04-25T00:32:39.765Z,109.80
2023-04-25T00:35:08.074Z,110.57
2023-04-25T00:37:37.446Z,110.60
2023-04-25T00:40:08.836Z,111.83
2023-04-25T00:42:38.253Z,113.27
2023-04-25T00:45:09.175Z,113.67
2023-04-25T00:47:38.532Z,115.57
2023-04-25T00:50:07.705Z,116.80
2023-04-25T00:52:37.045Z,118.10
2023-04-25T00:55:05.929Z,119.10
2023-04-25T00:57:33.996Z,119.77
2023-04-25T01:00:02.060Z,119.70
2023-04-25T01:02:31.875Z,118.90
2023-04-25T01:05:00.066Z,119.93
2023-04-25T01:07:28.257Z,122.63
2023-04-25T01:09:58.065Z,120.60
2023-04-25T01:12:26.185Z,119.90
2023-04-25T01:14:54.297Z,120.80
2023-04-25T01:17:22.392Z,122.40
2023-04-25T01:19:51.673Z,120.10
2023-04-25T01:22:21.822Z,118.40
2023-04-25T01:24:50.392Z,118.00
2023-04-25T01:27:19.034Z,119.00
2023-04-25T01:29:47.242Z,121.63
2023-04-25T01:32:16.125Z,121.63
2023-04-25T01:34:44.147Z,120.97
2023-04-25T01:37:12.077Z,120.73
2023-04-25T01:39:41.427Z,120.03
2023-04-25T01:42:09.709Z,120.63
2023-04-25T01:44:37.686Z,122.33
2023-04-25T01:47:05.841Z,122.17
2023-04-25T01:49:33.759Z,120.37
2023-04-25T01:52:01.839Z,121.90
2023-04-25T01:54:29.810Z,122.07
2023-04-25T01:56:59.566Z,124.50
2023-04-25T01:59:27.489Z,123.87
2023-04-25T02:01:55.468Z,126.63
2023-04-25T02:04:23.503Z,125.67
2023-04-25T02:06:51.470Z,125.00
2023-04-25T02:09:19.394Z,125.03
2023-04-25T02:11:47.360Z,123.90
2023-04-25T02:14:16.602Z,122.90
2023-04-25T02:16:45.011Z,122.13
2023-04-25T02:19:13.125Z,124.70
2023-04-25T02:21:41.077Z,122.80
2023-04-25T02:24:10.023Z,122.30
2023-04-25T02:26:37.964Z,123.93
2023-04-25T02:29:05.887Z,123.73
2023-04-25T02:31:35.224Z,125.27
2023-04-25T02:34:03.197Z,124.93
2023-04-25T02:36:35.192Z,124.70
2023-04-25T02:39:04.025Z,127.57
2023-04-25T02:41:31.989Z,126.00
2023-04-25T02:43:59.969Z,127.20
2023-04-25T02:46:38.237Z,126.17
2023-04-25T02:49:08.371Z,126.50
2023-04-25T02:51:36.383Z,126.47
2023-04-25T02:54:04.515Z,125.87
2023-04-25T02:56:32.410Z,126.10
2023-04-25T02:59:00.415Z,126.77
2023-04-25T03:01:28.360Z,128.97
2023-04-25T03:03:56.359Z,128.07
2023-04-25T03:06:25.703Z,128.13
2023-04-25T03:08:53.585Z,131.30
2023-04-25T03:11:22.197Z,131.10
2023-04-25T03:13:50.386Z,131.27
2023-04-25T03:16:18.541Z,129.47
2023-04-25T03:18:46.494Z,130.73
2023-04-25T03:21:17.801Z,128.57
2023-04-25T03:23:47.068Z,128.27
2023-04-25T03:26:15.021Z,127.13
2023-04-25T03:28:43.099Z,127.03
2023-04-25T03:31:11.133Z,129.37
2023-04-25T03:33:39.065Z,126.63
2023-04-25T03:36:07.894Z,128.80
2023-04-25T03:38:35.933Z,125.30
2023-04-25T03:41:05.638Z,126.67
2023-04-25T03:43:33.603Z,129.47
2023-04-25T03:46:02.175Z,128.70
2023-04-25T03:48:30.152Z,130.10
2023-04-25T03:50:58.072Z,127.40
2023-04-25T03:53:25.998Z,126.00
2023-04-25T03:55:54.118Z,127.80
2023-04-25T03:58:24.094Z,125.83
2023-04-25T04:00:53.431Z,122.47
2023-04-25T04:03:21.795Z,127.67
2023-04-25T04:05:50.029Z,123.83
2023-04-25T04:08:18.028Z,126.13
2023-04-25T04:10:45.954Z,124.07
2023-04-25T04:13:13.877Z,123.83
2023-04-25T04:15:43.361Z,131.33
2023-04-25T04:18:11.802Z,135.30
2023-04-25T04:20:39.783Z,142.57
2023-04-25T04:23:07.746Z,136.23
2023-04-25T04:25:36.499Z,138.07
2023-04-25T04:28:04.940Z,141.20
2023-04-25T04:30:34.195Z,145.30
2023-04-25T04:33:04.534Z,148.27
2023-04-25T04:35:32.726Z,148.30
2023-04-25T04:38:03.014Z,141.93
2023-04-25T04:40:32.187Z,141.50
2023-04-25T04:43:00.132Z,139.27
2023-04-25T04:45:28.724Z,141.47
2023-04-25T04:47:57.284Z,138.70
2023-04-25T04:50:27.574Z,136.07
2023-04-25T04:52:56.459Z,136.27
2023-04-25T04:55:24.434Z,131.10
2023-04-25T04:57:52.382Z,127.23
2023-04-25T05:00:21.890Z,127.03
2023-04-25T05:02:50.120Z,127.13
2023-04-25T05:05:18.255Z,124.40
2023-04-25T05:07:47.560Z,122.37
2023-04-25T05:10:15.569Z,123.43
2023-04-25T05:12:43.682Z,120.27
2023-04-25T05:15:12.118Z,117.37
2023-04-25T05:17:40.904Z,118.27
2023-04-25T05:20:10.369Z,118.50
2023-04-25T05:22:38.422Z,120.07
2023-04-25T05:25:08.310Z,120.73
2023-04-25T05:27:36.307Z,118.97
2023-04-25T05:30:04.544Z,116.23
2023-04-25T05:32:32.534Z,115.27
2023-04-25T05:35:00.506Z,113.60
2023-04-25T05:37:28.555Z,113.60
2023-04-25T05:39:56.512Z,115.67
2023-04-25T05:42:25.978Z,114.23
2023-04-25T05:44:53.901Z,113.47
2023-04-25T05:47:21.886Z,112.70
2023-04-25T05:49:50.364Z,114.13
2023-04-25T05:52:18.288Z,110.93
2023-04-25T05:54:46.565Z,108.07
2023-04-25T05:57:21.915Z,105.73
2023-04-25T05:59:51.392Z,104.80
2023-04-25T06:02:19.782Z,107.80
2023-04-25T06:04:48.016Z,106.40
2023-04-25T06:07:16.159Z,104.90
2023-04-25T06:09:45.295Z,101.50
2023-04-25T06:12:13.240Z,95.60
2023-04-25T06:14:41.717Z,89.93
2023-04-25T06:17:11.103Z,83.80
2023-04-25T06:19:39.473Z,77.93
2023-04-25T06:22:08.272Z,66.40
2023-04-25T06:24:36.534Z,59.03
2023-04-25T06:27:04.596Z,52.33
2023-04-25T06:29:32.561Z,49.77
2023-04-25T06:32:00.511Z,48.93
2023-04-25T06:34:29.870Z,47.03
2023-04-25T06:36:58.200Z,44.00
2023-04-25T06:39:26.485Z,40.77
2023-04-25T06:41:54.458Z,38.63
2023-04-25T06:44:24.123Z,37.47
2023-04-25T06:46:52.160Z,36.23
2023-04-25T06:49:20.090Z,35.57
2023-04-25T06:51:49.396Z,34.13
2023-04-25T06:54:18.522Z,29.90
2023-04-25T06:56:46.502Z,29.93
2023-04-25T06:59:14.446Z,30.27
2023-04-25T07:01:42.395Z,27.97
2023-04-25T07:04:10.673Z,26.17
2023-04-25T07:06:43.304Z,27.43
2023-04-25T07:09:13.065Z,25.13
2023-04-25T07:11:41.084Z,24.43
2023-04-25T07:14:09.106Z,23.10
2023-04-25T07:16:37.141Z,24.97
2023-04-25T07:19:05.175Z,24.10
2023-04-25T07:21:33.800Z,23.67
2023-04-25T07:24:01.734Z,22.80
2023-04-25T07:26:31.044Z,23.40
2023-04-25T07:28:58.942Z,22.07
2023-04-25T07:31:27.241Z,22.37
2023-04-25T07:33:55.180Z,21.97
2023-04-25T07:36:23.099Z,22.80
2023-04-25T07:38:51.275Z,22.23
2023-04-25T07:41:19.405Z,21.43
2023-04-25T07:43:48.765Z,20.93
2023-04-25T07:46:16.774Z,20.47
2023-04-25T07:48:44.951Z,21.60
2023-04-25T07:51:13.308Z,20.67
2023-04-25T07:53:41.460Z,20.93
2023-04-25T07:56:10.233Z,20.97
2023-04-25T07:58:38.391Z,21.10
2023-04-25T08:01:07.936Z,21.40
2023-04-25T08:03:36.385Z,20.37
2023-04-25T08:06:07.954Z,20.53
2023-04-25T08:08:36.639Z,20.70
2023-04-25T08:11:04.882Z,20.83
2023-04-25T08:13:32.939Z,21.20
2023-04-25T08:16:01.104Z,21.03
2023-04-25T08:18:30.721Z,21.43
2023-04-25T08:20:58.815Z,21.60
2023-04-25T08:23:26.855Z,21.93
2023-04-25T08:25:54.964Z,21.30
2023-04-25T08:28:23.005Z,20.97
2023-04-25T08:30:51.117Z,21.47
2023-04-25T08:33:19.408Z,21.47
2023-04-25T08:35:49.066Z,21.60
2023-04-25T08:38:18.795Z,21.40
2023-04-25T08:40:47.304Z,21.90
2023-04-25T08:43:16.225Z,22.00
2023-04-25T08:45:44.910Z,21.37
2023-04-25T08:48:15.024Z,21.17
2023-04-25T08:50:52.505Z,20.93
2023-04-25T08:53:26.277Z,21.10
2023-04-25T08:55:57.259Z,21.17
2023-04-25T08:58:25.978Z,21.07
2023-04-25T09:00:54.793Z,21.07
2023-04-25T09:03:23.296Z,21.33
2023-04-25T09:05:53.770Z,20.43
2023-04-25T09:08:22.150Z,20.17
2023-04-25T09:10:50.285Z,21.53
2023-04-25T09:13:27.108Z,20.40
2023-04-25T09:15:56.481Z,20.27
2023-04-25T09:18:29.932Z,20.83
2023-04-25T09:21:13.770Z,21.23
2023-04-25T09:23:44.316Z,21.20
2023-04-25T09:26:15.766Z,20.93
2023-04-25T09:28:44.079Z,20.57
2023-04-25T09:31:12.932Z,21.10
2023-04-25T09:33:42.583Z,20.80
2023-04-25T09:36:13.077Z,20.43
2023-04-25T09:38:43.790Z,20.43
2023-04-25T09:41:13.659Z,20.90
2023-04-25T09:43:42.274Z,20.47
2023-04-25T09:46:12.238Z,20.43
2023-04-25T09:48:40.673Z,19.93
2023-04-25T09:51:10.149Z,20.67
2023-04-25T09:53:41.426Z,20.30
2023-04-25T09:56:11.237Z,21.30
2023-04-25T09:58:40.731Z,19.73
2023-04-25T10:01:10.136Z,20.57
2023-04-25T10:03:40.863Z,20.57
2023-04-25T10:06:11.387Z,19.77
2023-04-25T10:08:41.204Z,20.03
2023-04-25T10:11:10.656Z,19.40
2023-04-25T10:13:38.788Z,19.47
2023-04-25T10:16:07.522Z,19.53
2023-04-25T10:18:35.628Z,19.43
2023-04-25T10:21:06.258Z,19.50
2023-04-25T10:23:35.441Z,19.77
2023-04-25T10:26:05.206Z,19.73
2023-04-25T10:28:59.768Z,19.90
2023-04-25T10:31:27.996Z,19.50
2023-04-25T10:33:56.382Z,20.13
2023-04-25T10:36:25.636Z,19.83
2023-04-25T10:38:55.375Z,19.83
2023-04-25T10:41:25.009Z,20.07
2023-04-25T10:44:03.159Z,20.10
2023-04-25T10:46:32.292Z,20.07
2023-04-25T10:49:05.686Z,20.27
2023-04-25T10:51:51.553Z,20.53
2023-04-25T10:54:27.058Z,20.83
2023-04-25T10:56:56.500Z,21.33
2023-04-25T10:59:27.454Z,20.93
2023-04-25T11:01:56.169Z,20.60
2023-04-25T11:04:26.575Z,20.83
2023-04-25T11:07:07.009Z,19.93
2023-04-25T11:09:36.433Z,20.03
2023-04-25T11:12:06.983Z,20.13
2023-04-25T11:14:34.883Z,20.47
2023-04-25T11:17:03.623Z,20.30
2023-04-25T11:19:32.201Z,20.40
2023-04-25T11:22:01.699Z,20.17
2023-04-25T11:24:30.049Z,19.80
2023-04-25T11:26:59.824Z,19.73
2023-04-25T11:29:31.046Z,20.23
2023-04-25T11:31:59.903Z,20.07
2023-04-25T11:34:28.288Z,19.30
2023-04-25T11:36:56.378Z,19.37
2023-04-25T11:39:26.790Z,19.83
2023-04-25T11:41:55.728Z,20.17
2023-04-25T11:44:24.549Z,20.20
2023-04-25T11:46:54.016Z,20.10
2023-04-25T11:49:23.109Z,20.00
2023-04-25T11:51:51.279Z,20.70
2023-04-25T11:54:19.506Z,20.50
2023-04-25T11:56:48.276Z,20.03
2023-04-25T11:59:17.741Z,20.70
2023-04-25T12:01:51.272Z,21.07
2023-04-25T12:04:22.193Z,19.97
2023-04-25T12:06:52.943Z,20.63
2023-04-25T12:09:23.577Z,20.30
2023-04-25T12:11:56.010Z,20.63
2023-04-25T12:14:25.948Z,19.93
2023-04-25T12:16:54.003Z,19.67
2023-04-25T12:19:23.723Z,19.40
2023-04-25T12:24:26.569Z,19.37
2023-04-25T12:26:55.772Z,19.17
2023-04-25T12:29:29.477Z,19.37
2023-04-25T12:32:00.840Z,19.07
2023-04-25T12:34:32.592Z,19.07
2023-04-25T12:37:00.863Z,19.43
2023-04-25T12:39:28.976Z,19.90
2023-04-25T12:41:57.110Z,19.70
2023-04-25T12:44:25.312Z,20.17
2023-04-25T12:46:54.004Z,20.60
2023-04-25T12:49:22.404Z,20.03
2023-04-25T12:51:52.564Z,20.23
2023-04-25T12:54:20.729Z,20.17
2023-04-25T12:56:49.336Z,20.23
2023-04-25T12:59:17.607Z,20.30
2023-04-25T13:01:46.553Z,20.23
2023-04-25T13:04:14.878Z,20.23
2023-04-25T13:06:42.979Z,21.57
2023-04-25T13:09:13.496Z,21.60
2023-04-25T13:11:42.590Z,19.83
2023-04-25T13:14:10.801Z,20.40
2023-04-25T13:16:38.984Z,20.03
2023-04-25T13:19:08.795Z,20.60
2023-04-25T13:21:36.934Z,20.50
2023-04-25T13:24:05.985Z,19.57
2023-04-25T13:26:35.480Z,20.03
2023-04-25T13:29:04.632Z,19.90
2023-04-25T13:31:33.696Z,19.97
2023-04-25T13:34:01.806Z,20.10
2023-04-25T13:36:30.000Z,19.73
2023-04-25T13:38:58.026Z,21.17
2023-04-25T13:41:26.167Z,19.73
2023-04-25T13:43:55.934Z,19.93
2023-04-25T13:46:44.901Z,19.70
2023-04-25T13:49:13.474Z,19.50
2023-04-25T13:51:41.855Z,19.33
2023-04-25T13:54:09.983Z,19.60
2023-04-25T13:56:38.184Z,19.40
2023-04-25T13:59:07.991Z,19.73
2023-04-25T14:01:36.687Z,19.60
2023-04-25T14:04:06.685Z,19.37
2023-04-25T14:06:35.287Z,19.80
2023-04-25T14:09:05.426Z,19.20
2023-04-25T14:11:33.738Z,18.97
2023-04-25T14:14:01.820Z,18.93
2023-04-25T14:16:32.809Z,18.83
2023-04-25T14:19:01.306Z,19.00
2023-04-25T14:21:30.108Z,19.63
2023-04-25T14:23:58.178Z,20.10
2023-04-25T14:26:26.807Z,19.53
2023-04-25T14:28:54.998Z,18.83
2023-04-25T14:31:23.255Z,20.00
2023-04-25T14:33:53.639Z,18.90
2023-04-25T14:36:22.461Z,19.70
2023-04-25T14:38:51.132Z,19.40
2023-04-25T14:41:19.318Z,19.30
2023-04-25T14:43:47.386Z,19.67
2023-04-25T14:46:15.601Z,19.43
2023-04-25T14:48:44.156Z,19.17
2023-04-25T14:51:13.648Z,19.10
2023-04-25T14:53:42.197Z,19.10
2023-04-25T14:56:10.765Z,19.07
2023-04-25T14:58:39.880Z,19.00
2023-04-25T15:01:09.244Z,21.40
2023-04-25T15:03:37.755Z,19.90
2023-04-25T15:06:07.219Z,19.80
2023-04-25T15:08:36.980Z,19.90
2023-04-25T15:11:05.747Z,20.17
2023-04-25T15:13:35.922Z,20.33
2023-04-25T15:16:04.199Z,19.90
2023-04-25T15:18:32.336Z,20.37
2023-04-25T15:21:00.498Z,19.23
2023-04-25T15:23:29.842Z,19.63
2023-04-25T15:25:59.478Z,19.80
2023-04-25T15:28:27.651Z,19.97
2023-04-25T15:30:56.172Z,19.53
2023-04-25T15:33:24.285Z,19.87
2023-04-25T15:35:52.311Z,19.63
2023-04-25T15:38:20.425Z,19.83
2023-04-25T15:40:48.676Z,19.87
2023-04-25T15:43:18.278Z,19.63
2023-04-25T15:45:46.632Z,20.03
2023-04-25T15:48:14.801Z,19.03
2023-04-25T15:50:43.382Z,19.80
2023-04-25T15:53:11.782Z,20.43
2023-04-25T15:55:42.823Z,19.97
2023-04-25T15:58:12.809Z,20.20
2023-04-25T16:00:43.376Z,19.40
2023-04-25T16:03:11.747Z,20.20
2023-04-25T16:05:40.932Z,19.80
2023-04-25T16:08:09.166Z,19.93
2023-04-25T16:10:38.205Z,19.70
2023-04-25T16:13:06.370Z,19.57
2023-04-25T16:15:35.524Z,19.83
2023-04-25T16:18:05.676Z,19.50
2023-04-25T16:20:34.061Z,20.57
2023-04-25T16:23:02.289Z,19.20
2023-04-25T16:25:30.449Z,18.70
2023-04-25T16:27:58.621Z,18.87
2023-04-25T16:30:27.230Z,19.17
2023-04-25T16:32:57.092Z,20.60
2023-04-25T16:35:30.441Z,19.00
2023-04-25T16:37:58.693Z,18.93
2023-04-25T16:40:27.096Z,18.90
2023-04-25T16:42:55.281Z,19.40
2023-04-25T16:45:24.350Z,20.13
2023-04-25T16:47:52.521Z,19.80
2023-04-25T16:50:21.141Z,20.73
2023-04-25T16:52:51.167Z,19.57
2023-04-25T16:55:20.453Z,20.30
2023-04-25T16:57:48.508Z,20.60
2023-04-25T17:00:18.246Z,19.10
2023-04-25T17:02:47.226Z,19.10
2023-04-25T17:05:15.557Z,20.13
2023-04-25T17:07:43.709Z,19.80
2023-04-25T17:10:13.448Z,18.87
2023-04-25T17:12:41.583Z,19.00
2023-04-25T17:15:10.648Z,19.23
2023-04-25T17:17:38.781Z,19.20
2023-04-25T17:20:08.398Z,20.40
2023-04-25T17:22:37.093Z,18.77
2023-04-25T17:25:05.599Z,19.67
2023-04-25T17:27:35.303Z,19.03
2023-04-25T17:30:04.067Z,19.80
2023-04-25T17:32:32.384Z,19.20
2023-04-25T17:35:00.890Z,19.00
2023-04-25T17:37:29.135Z,20.03
2023-04-25T17:39:57.419Z,19.90
2023-04-25T17:42:25.608Z,19.30
2023-04-25T17:44:55.620Z,19.10
2023-04-25T17:47:24.238Z,19.27
2023-04-25T17:49:52.599Z,19.30
2023-04-25T17:52:20.933Z,19.43
2023-04-25T17:54:49.786Z,19.30
2023-04-25T17:57:18.028Z,19.10
2023-04-25T17:59:46.346Z,21.13
2023-04-25T18:02:17.054Z,19.50
2023-04-25T18:04:45.621Z,21.00
2023-04-25T18:07:13.788Z,21.70
2023-04-25T18:09:42.009Z,19.20
2023-04-25T18:12:10.426Z,20.53
2023-04-25T18:14:38.440Z,19.10
2023-04-25T18:17:07.214Z,19.60
2023-04-25T18:19:36.667Z,19.10
2023-04-25T18:22:04.911Z,18.10
2023-04-25T18:24:33.477Z,18.63
2023-04-25T18:27:02.710Z,19.37
2023-04-25T18:29:33.763Z,18.50
2023-04-25T18:32:04.496Z,19.17
2023-04-25T18:34:33.707Z,19.10
2023-04-25T18:37:03.283Z,18.87
2023-04-25T18:39:31.489Z,18.77
2023-04-25T18:42:05.461Z,19.57
2023-04-25T18:44:39.468Z,19.20
2023-04-25T18:47:08.868Z,18.80
2023-04-25T18:49:37.496Z,19.20
2023-04-25T18:52:08.633Z,19.87
2023-04-25T18:54:37.034Z,20.07
2023-04-25T18:57:06.239Z,20.20
2023-04-25T18:59:34.573Z,20.80
2023-04-25T19:02:03.371Z,19.50
2023-04-25T19:04:32.298Z,19.67
2023-04-25T19:07:00.550Z,21.50
2023-04-25T19:09:30.225Z,20.40
2023-04-25T19:11:58.648Z,20.53
2023-04-25T19:14:28.396Z,21.10
2023-04-25T19:16:59.141Z,20.67
2023-04-25T19:19:27.504Z,21.50
2023-04-25T19:21:55.857Z,21.27
2023-04-25T19:24:24.073Z,22.43
2023-04-25T19:26:53.518Z,25.43
2023-04-25T19:29:21.778Z,21.17
2023-04-25T19:31:50.047Z,21.90
2023-04-25T19:34:18.263Z,22.00
2023-04-25T19:36:46.491Z,22.20
2023-04-25T19:39:14.598Z,21.60
2023-04-25T19:41:42.884Z,21.83
2023-04-25T19:44:12.460Z,21.73
2023-04-25T19:46:42.109Z,21.97
2023-04-25T19:49:10.415Z,21.97
2023-04-25T19:51:38.704Z,22.57
2023-04-25T19:54:06.926Z,22.40
2023-04-25T19:56:35.282Z,22.57
2023-04-25T19:59:03.707Z,22.67
2023-04-25T20:01:33.486Z,22.73
2023-04-25T20:04:01.668Z,22.77
2023-04-25T20:06:29.905Z,23.67
2023-04-25T20:08:58.005Z,23.63
2023-04-25T20:11:28.624Z,24.47
2023-04-25T20:13:57.415Z,23.97
2023-04-25T20:16:25.681Z,24.17
2023-04-25T20:18:55.495Z,24.77
2023-04-25T20:21:24.252Z,25.30
2023-04-25T20:23:52.389Z,24.37
2023-04-25T20:26:22.639Z,24.93
2023-04-25T20:28:58.669Z,24.97
2023-04-25T20:31:27.025Z,22.97
2023-04-25T20:33:56.796Z,23.60
2023-04-25T20:36:24.883Z,23.33
2023-04-25T20:38:53.957Z,23.03
2023-04-25T20:41:22.633Z,23.37
2023-04-25T20:43:53.176Z,23.57
2023-04-25T20:46:23.516Z,23.20
2023-04-25T20:48:52.798Z,22.93
2023-04-25T20:51:24.084Z,23.07
2023-04-25T20:53:53.221Z,23.20
2023-04-25T20:56:21.412Z,22.97
2023-04-25T20:58:50.066Z,23.40
2023-04-25T21:01:18.568Z,25.40
2023-04-25T21:03:48.433Z,23.10
2023-04-25T21:06:16.841Z,23.53
2023-04-25T21:08:46.695Z,23.47
2023-04-25T21:11:15.411Z,24.07
2023-04-25T21:13:43.624Z,24.10
2023-04-25T21:16:12.224Z,26.40
2023-04-25T21:18:40.671Z,22.67
2023-04-25T21:21:08.883Z,23.17
2023-04-25T21:23:37.061Z,23.80
2023-04-25T21:26:06.758Z,23.73
2023-04-25T21:28:34.944Z,23.23
2023-04-25T21:31:03.223Z,24.60
2023-04-25T21:33:31.707Z,27.53
2023-04-25T21:35:59.810Z,25.43
2023-04-25T21:38:27.920Z,25.87
2023-04-25T21:40:56.493Z,26.50
2023-04-25T21:43:26.140Z,25.90
2023-04-25T21:46:21.530Z,26.43
2023-04-25T21:48:42.452Z,26.37
2023-04-25T21:51:10.673Z,26.70
2023-04-25T21:53:38.848Z,27.23
2023-04-25T21:56:07.590Z,27.00
2023-04-25T21:58:37.129Z,25.80
2023-04-25T22:01:05.822Z,27.20
2023-04-25T22:03:34.319Z,28.23
2023-04-25T22:06:03.918Z,27.80
2023-04-25T22:08:32.181Z,30.33
2023-04-25T22:11:02.760Z,28.50
2023-04-25T22:13:31.334Z,29.17
2023-04-25T22:16:01.028Z,30.20
2023-04-25T22:18:29.185Z,30.37
2023-04-25T22:20:57.799Z,30.93
2023-04-25T22:23:26.291Z,30.87
2023-04-25T22:25:54.457Z,32.27
2023-04-25T22:28:22.760Z,34.23
2023-04-25T22:30:51.110Z,34.90
2023-04-25T22:33:20.854Z,36.17
2023-04-25T22:35:49.096Z,38.13
2023-04-25T22:38:17.318Z,38.97
2023-04-25T22:40:47.963Z,41.43
2023-04-25T22:43:16.298Z,42.50
2023-04-25T22:45:44.475Z,42.00
2023-04-25T22:48:12.972Z,44.90
2023-04-25T22:50:42.565Z,47.80
2023-04-25T22:53:11.629Z,49.00
2023-04-25T22:55:39.957Z,52.10
2023-04-25T22:58:09.375Z,53.17
2023-04-25T23:00:37.884Z,55.23
2023-04-25T23:03:06.816Z,58.50
2023-04-25T23:05:35.034Z,60.23
2023-04-25T23:08:05.473Z,63.47
2023-04-25T23:10:33.472Z,65.23
2023-04-25T23:13:01.620Z,70.83
2023-04-25T23:15:31.311Z,72.30
2023-04-25T23:17:59.457Z,77.03
2023-04-25T23:20:27.843Z,75.40
2023-04-25T23:22:56.018Z,76.67
2023-04-25T23:25:26.631Z,78.87
2023-04-25T23:27:54.744Z,83.80
2023-04-25T23:30:23.122Z,83.60
2023-04-25T23:32:51.395Z,86.27
2023-04-25T23:35:19.563Z,86.33
2023-04-25T23:37:49.051Z,88.63
2023-04-25T23:40:17.137Z,90.23
2023-04-25T23:42:46.585Z,93.37
2023-04-25T23:45:16.518Z,95.80
2023-04-25T23:47:44.944Z,96.90
2023-04-25T23:50:13.394Z,101.43
2023-04-25T23:52:41.724Z,101.73
2023-04-25T23:55:10.730Z,102.43
2023-04-25T23:57:38.860Z,105.50
